CheckWX is a tool to help pilots better visualize weather data.  It is not intended as a substitute for an official pre-flight weather briefing.

14:17:16 UTC

KTLH METAR
Tallahassee International Airport
Tallahassee, Florida, USA
Current

24 mins ago

KTLH 221353Z 36006KT 10SM CLR 20/10 A3021 RMK AO2 SLP230 T02000100
Observed
Apr-22 @ 13:53 UTC
Wind
  • 360° at 6 KTS
Visibility
10 SM
Flight Rules
VFR
Cloud Levels
  • Clear skies
Temperature
20°C / 68°F
Dewpoint
10°C / 50°F
Humidity
53%
Altimeter
30.21" Hg
Pressure
1023.02 hPa
Previous

1 hour ago

KTLH 221253Z 34007KT 10SM CLR 16/09 A3021 RMK AO2 SLP228 T01560094
Observed
Apr-22 @ 12:53 UTC
Wind
  • 340° at 7 KTS
Visibility
10 SM
Flight Rules
VFR
Cloud Levels
  • Clear skies
Temperature
16°C / 61°F
Dewpoint
C / 48°F
Humidity
63%
Altimeter
30.21" Hg
Pressure
1023.02 hPa
Previous

2 hours ago

KTLH 221153Z 00000KT 10SM CLR 09/08 A3019 RMK AO2 SLP223 T00890078 10094 20067 53008
Observed
Apr-22 @ 11:53 UTC
Visibility
10 SM
Flight Rules
VFR
Cloud Levels
  • Clear skies
Temperature
C / 48°F
Dewpoint
C / 46°F
Humidity
94%
Altimeter
30.19" Hg
Pressure
1022.32 hPa